Time;durP1;ratioP1;P1;durP2;ratioP2;P2;SDS_P1;SDS_P2;PMS_P1;PMS_P2;Temp;Humidity;BMP_temperature;BMP_pressure;BME280_temperature;BME280_humidity;BME280_pressure;Samples;Min_cycle;Max_cycle;Signal;HPM_P1;HPM_P2
2023/10/05 00:03:50;;;;;;;13.98;3.38;;;;;;;;;;4932970;29;20051;-69
2023/10/05 00:06:17;;;;;;;12.07;2.93;;;;;;;;;;4942746;28;20109;-70
2023/10/05 00:08:45;;;;;;;11.23;3.50;;;;;;;;;;4950397;29;20540;-69
2023/10/05 00:11:23;;;;;;;12.20;3.15;;;;;;;;;;4919403;29;20075;-69
2023/10/05 00:13:52;;;;;;;10.32;3.22;;;;;;;;;;4923898;29;20067;-69
2023/10/05 00:16:21;;;;;;;10.68;3.30;;;;;;;;;;4916141;28;20059;-69
2023/10/05 00:18:49;;;;;;;8.38;2.90;;;;;;;;;;4947172;28;20043;-69
2023/10/05 00:21:19;;;;;;;7.95;2.85;;;;;;;;;;4918848;28;20067;-69
2023/10/05 00:23:58;;;;;;;10.27;2.92;;;;;;;;;;4919233;28;20086;-68
2023/10/05 00:26:29;;;;;;;9.13;3.10;;;;;;;;;;4933555;29;20055;-69
2023/10/05 00:29:18;;;;;;;7.15;3.03;;;;;;;;;;4933631;29;20512;-70
2023/10/05 00:31:44;;;;;;;9.05;3.03;;;;;;;;;;4937976;28;20047;-69
2023/10/05 00:34:21;;;;;;;7.90;3.00;;;;;;;;;;4950606;28;20051;-70
2023/10/05 00:36:50;;;;;;;11.10;3.17;;;;;;;;;;4940494;28;20077;-72
2023/10/05 00:39:20;;;;;;;13.00;3.40;;;;;;;;;;4946761;28;20126;-70
2023/10/05 00:44:32;;;;;;;8.80;2.90;;;;;;;;;;4937767;28;20075;-69
2023/10/05 00:47:05;;;;;;;12.40;3.03;;;;;;;;;;4922913;29;20060;-70
2023/10/05 00:50:06;;;;;;;10.13;2.92;;;;;;;;;;4915585;29;20361;-69
2023/10/05 00:52:25;;;;;;;11.75;3.17;;;;;;;;;;4930330;28;20051;-69
2023/10/05 00:54:53;;;;;;;8.73;3.15;;;;;;;;;;4915055;29;20039;-69
2023/10/05 00:57:24;;;;;;;11.23;3.05;;;;;;;;;;4920796;29;20119;-69
2023/10/05 01:02:26;;;;;;;9.63;3.40;;;;;;;;;;4938893;28;20039;-69
2023/10/05 01:04:55;;;;;;;11.15;3.05;;;;;;;;;;4920651;28;20083;-70
2023/10/05 01:12:43;;;;;;;11.32;3.35;;;;;;;;;;4915604;29;20723;-69
2023/10/05 01:15:11;;;;;;;9.77;3.15;;;;;;;;;;4924132;29;20365;-69
2023/10/05 01:17:39;;;;;;;9.77;3.30;;;;;;;;;;4930500;28;20555;-69
2023/10/05 01:20:12;;;;;;;11.00;3.13;;;;;;;;;;4944233;28;20047;-68
2023/10/05 01:22:39;;;;;;;12.88;3.60;;;;;;;;;;4947683;28;20054;-69
2023/10/05 01:25:05;;;;;;;12.55;3.63;;;;;;;;;;4921145;29;20058;-69
2023/10/05 01:27:32;;;;;;;12.10;3.55;;;;;;;;;;4915533;28;20051;-69
2023/10/05 01:29:58;;;;;;;11.40;3.22;;;;;;;;;;4946963;28;20039;-68
2023/10/05 01:32:24;;;;;;;11.43;3.20;;;;;;;;;;4940311;28;20493;-69
2023/10/05 01:34:50;;;;;;;12.18;3.72;;;;;;;;;;4935881;28;20471;-69
2023/10/05 01:37:18;;;;;;;9.38;3.15;;;;;;;;;;4921967;29;20152;-69
2023/10/05 01:39:44;;;;;;;11.55;3.67;;;;;;;;;;4928295;29;20052;-69
2023/10/05 01:42:11;;;;;;;9.27;3.13;;;;;;;;;;4928293;29;20051;-68
2023/10/05 01:44:40;;;;;;;11.23;3.45;;;;;;;;;;4926192;29;20039;-68
2023/10/05 01:47:06;;;;;;;12.13;3.17;;;;;;;;;;4948414;28;20126;-69
2023/10/05 01:49:33;;;;;;;12.38;3.30;;;;;;;;;;4943930;28;20068;-68
2023/10/05 01:51:59;;;;;;;12.07;3.38;;;;;;;;;;4936707;28;20453;-69
2023/10/05 01:54:28;;;;;;;13.18;3.53;;;;;;;;;;4922568;29;20051;-69
2023/10/05 01:57:01;;;;;;;11.15;3.20;;;;;;;;;;4918976;28;20043;-69
2023/10/05 01:59:27;;;;;;;12.20;3.45;;;;;;;;;;4915855;29;20047;-69
2023/10/05 02:01:54;;;;;;;13.57;3.50;;;;;;;;;;4926165;28;20051;-69
2023/10/05 02:04:22;;;;;;;11.23;3.22;;;;;;;;;;4923827;29;20084;-68
2023/10/05 02:06:49;;;;;;;13.05;3.53;;;;;;;;;;4928487;29;20067;-69
2023/10/05 02:09:19;;;;;;;9.60;3.22;;;;;;;;;;4922727;29;20496;-70
2023/10/05 02:11:47;;;;;;;15.73;3.38;;;;;;;;;;4940446;28;20074;-69
2023/10/05 02:14:14;;;;;;;8.13;3.20;;;;;;;;;;4915919;29;20051;-69
2023/10/05 02:16:41;;;;;;;11.55;3.33;;;;;;;;;;4943041;28;20476;-70
2023/10/05 02:19:07;;;;;;;10.45;3.33;;;;;;;;;;4920890;29;20043;-70
2023/10/05 02:21:36;;;;;;;13.23;3.42;;;;;;;;;;4917064;29;20087;-69
2023/10/05 02:24:18;;;;;;;11.32;3.58;;;;;;;;;;4923888;29;20051;-69
2023/10/05 02:29:26;;;;;;;12.13;3.28;;;;;;;;;;4941271;28;20063;-69
2023/10/05 02:34:21;;;;;;;10.88;3.08;;;;;;;;;;4925489;28;20046;-69
2023/10/05 02:36:50;;;;;;;13.57;4.10;;;;;;;;;;4918958;29;20087;-70
2023/10/05 02:39:17;;;;;;;10.80;3.20;;;;;;;;;;4938367;28;20086;-70
2023/10/05 02:41:43;;;;;;;11.73;3.17;;;;;;;;;;4916234;29;20052;-70
2023/10/05 02:47:08;;;;;;;8.67;2.73;;;;;;;;;;4915141;28;20062;-70
2023/10/05 02:49:44;;;;;;;12.00;3.40;;;;;;;;;;4919491;29;20114;-70
2023/10/05 02:52:14;;;;;;;13.00;3.10;;;;;;;;;;4918516;28;20051;-70
2023/10/05 02:54:40;;;;;;;12.32;3.63;;;;;;;;;;4925755;29;20055;-69
2023/10/05 02:57:14;;;;;;;9.77;3.10;;;;;;;;;;4920538;28;20040;-69
2023/10/05 02:59:43;;;;;;;14.57;3.50;;;;;;;;;;4936547;28;20052;-70
2023/10/05 03:02:14;;;;;;;14.43;3.47;;;;;;;;;;4926892;29;20159;-70
2023/10/05 03:07:19;;;;;;;12.73;3.60;;;;;;;;;;4934904;28;20127;-69
2023/10/05 03:09:46;;;;;;;11.93;3.65;;;;;;;;;;4945033;28;20047;-69
2023/10/05 03:12:12;;;;;;;13.27;3.25;;;;;;;;;;4945056;28;20062;-69
2023/10/05 03:14:45;;;;;;;15.27;3.65;;;;;;;;;;4940176;28;20918;-70
2023/10/05 03:17:19;;;;;;;17.52;3.47;;;;;;;;;;4917259;29;20067;-69
2023/10/05 03:19:45;;;;;;;19.55;3.55;;;;;;;;;;4923694;28;20404;-69
2023/10/05 03:22:15;;;;;;;13.85;3.33;;;;;;;;;;4922295;29;20055;-69
2023/10/05 03:24:44;;;;;;;9.82;3.25;;;;;;;;;;4931940;29;20135;-69
2023/10/05 03:27:11;;;;;;;17.33;3.60;;;;;;;;;;4942378;28;20481;-69
2023/10/05 03:29:38;;;;;;;16.02;3.83;;;;;;;;;;4917686;28;20044;-69
2023/10/05 03:34:34;;;;;;;11.45;3.08;;;;;;;;;;4937464;28;20195;-69
2023/10/05 03:37:04;;;;;;;12.07;3.53;;;;;;;;;;4933258;28;20131;-69
2023/10/05 03:39:35;;;;;;;12.27;3.35;;;;;;;;;;4934280;28;20055;-69
2023/10/05 03:42:02;;;;;;;13.60;3.55;;;;;;;;;;4916197;29;20048;-69
2023/10/05 03:44:28;;;;;;;11.50;3.20;;;;;;;;;;4911582;29;20110;-69
2023/10/05 03:46:54;;;;;;;16.42;3.67;;;;;;;;;;4915296;29;20062;-69
2023/10/05 03:49:21;;;;;;;16.20;3.90;;;;;;;;;;4933554;28;20126;-68
2023/10/05 03:51:51;;;;;;;13.27;3.47;;;;;;;;;;4914927;29;20069;-68
2023/10/05 03:54:21;;;;;;;16.45;3.55;;;;;;;;;;4933347;28;20039;-69
2023/10/05 03:56:58;;;;;;;12.15;3.25;;;;;;;;;;4919259;28;20098;-69
2023/10/05 03:59:24;;;;;;;13.30;3.60;;;;;;;;;;4920218;29;20570;-69
2023/10/05 04:01:51;;;;;;;18.55;4.03;;;;;;;;;;4939956;28;20424;-69
2023/10/05 04:04:21;;;;;;;13.15;3.40;;;;;;;;;;4923003;29;20396;-69
2023/10/05 04:06:51;;;;;;;15.15;3.80;;;;;;;;;;4949903;28;20051;-69
2023/10/05 04:09:19;;;;;;;18.63;3.90;;;;;;;;;;4951435;28;20125;-68
2023/10/05 04:11:45;;;;;;;12.45;3.50;;;;;;;;;;4949572;28;20386;-69
2023/10/05 04:14:12;;;;;;;12.75;3.60;;;;;;;;;;4944578;28;20077;-70
2023/10/05 04:16:38;;;;;;;13.95;3.72;;;;;;;;;;4939134;28;20469;-69
2023/10/05 04:19:05;;;;;;;18.02;3.75;;;;;;;;;;4921171;29;20062;-69
2023/10/05 04:21:32;;;;;;;16.23;3.90;;;;;;;;;;4941698;28;20460;-69
2023/10/05 04:23:59;;;;;;;18.42;4.70;;;;;;;;;;4921010;29;20396;-68
2023/10/05 04:26:32;;;;;;;17.13;4.18;;;;;;;;;;4924475;29;20054;-69
2023/10/05 04:28:58;;;;;;;14.55;4.03;;;;;;;;;;4926754;29;20375;-69
2023/10/05 04:31:25;;;;;;;15.65;4.00;;;;;;;;;;4940556;28;20057;-69
2023/10/05 04:33:52;;;;;;;13.30;3.55;;;;;;;;;;4920978;28;20043;-69
2023/10/05 04:36:22;;;;;;;18.52;3.92;;;;;;;;;;4915073;29;20415;-68
2023/10/05 04:38:48;;;;;;;19.23;3.80;;;;;;;;;;4935001;28;20055;-69
2023/10/05 04:41:14;;;;;;;17.65;3.97;;;;;;;;;;4929953;29;20050;-69
2023/10/05 04:43:43;;;;;;;14.00;3.83;;;;;;;;;;4917730;29;20063;-69
2023/10/05 04:46:10;;;;;;;16.60;3.90;;;;;;;;;;4918287;29;20059;-69
2023/10/05 04:48:39;;;;;;;13.23;3.70;;;;;;;;;;4915504;29;20052;-69
2023/10/05 04:51:05;;;;;;;17.00;3.60;;;;;;;;;;4915309;29;20043;-69
2023/10/05 04:53:32;;;;;;;15.65;3.80;;;;;;;;;;4932591;28;20056;-69
2023/10/05 04:56:22;;;;;;;15.63;4.05;;;;;;;;;;4915099;29;20039;-69
2023/10/05 04:58:53;;;;;;;18.40;3.80;;;;;;;;;;4923666;29;20048;-69
2023/10/05 05:01:29;;;;;;;15.63;3.58;;;;;;;;;;4914904;29;20059;-69
2023/10/05 05:04:27;;;;;;;14.70;3.88;;;;;;;;;;4927359;29;20065;-69
2023/10/05 05:06:53;;;;;;;20.35;4.13;;;;;;;;;;4923887;29;20118;-69
2023/10/05 05:09:21;;;;;;;17.10;4.30;;;;;;;;;;4935993;28;20090;-69
2023/10/05 05:11:49;;;;;;;20.58;4.15;;;;;;;;;;4915945;29;20047;-69
2023/10/05 05:14:15;;;;;;;20.90;4.20;;;;;;;;;;4921411;29;20098;-69
2023/10/05 05:16:43;;;;;;;18.08;4.03;;;;;;;;;;4927967;29;20047;-69
2023/10/05 05:19:10;;;;;;;16.75;3.85;;;;;;;;;;4926649;29;20103;-69
2023/10/05 05:21:36;;;;;;;13.20;3.65;;;;;;;;;;4922088;29;20051;-69
2023/10/05 05:24:05;;;;;;;15.93;3.85;;;;;;;;;;4919485;29;20524;-69
2023/10/05 05:26:31;;;;;;;15.73;3.47;;;;;;;;;;4930774;29;20051;-70
2023/10/05 05:28:58;;;;;;;12.77;4.07;;;;;;;;;;4930762;29;20126;-69
2023/10/05 05:31:25;;;;;;;14.27;3.95;;;;;;;;;;4941250;28;20043;-70
2023/10/05 05:33:51;;;;;;;22.15;4.25;;;;;;;;;;4924119;29;20059;-69
2023/10/05 05:36:17;;;;;;;17.13;4.30;;;;;;;;;;4946408;29;20452;-69
2023/10/05 05:38:47;;;;;;;18.40;4.53;;;;;;;;;;4944833;29;20159;-70
2023/10/05 05:41:19;;;;;;;16.23;4.10;;;;;;;;;;4934782;29;20083;-68
2023/10/05 05:43:46;;;;;;;18.45;4.20;;;;;;;;;;4924996;29;20102;-69
2023/10/05 05:46:13;;;;;;;13.77;3.65;;;;;;;;;;4907819;29;20455;-69
2023/10/05 05:48:42;;;;;;;19.25;4.30;;;;;;;;;;4915293;29;20364;-70
2023/10/05 05:51:14;;;;;;;14.10;4.00;;;;;;;;;;4939111;29;20047;-70
2023/10/05 05:53:41;;;;;;;19.80;4.45;;;;;;;;;;4927240;28;20458;-69
2023/10/05 05:56:07;;;;;;;17.27;3.97;;;;;;;;;;4931503;28;20408;-69
2023/10/05 05:58:34;;;;;;;14.45;4.10;;;;;;;;;;4910623;28;20087;-71
2023/10/05 06:01:00;;;;;;;17.42;4.05;;;;;;;;;;4912630;29;20055;-71
2023/10/05 06:03:27;;;;;;;20.55;4.55;;;;;;;;;;4941625;28;20035;-70
2023/10/05 06:05:53;;;;;;;12.90;3.70;;;;;;;;;;4921827;29;20059;-69
2023/10/05 06:08:19;;;;;;;16.58;3.97;;;;;;;;;;4932158;29;20047;-68
2023/10/05 06:10:47;;;;;;;17.58;4.50;;;;;;;;;;4939812;28;20464;-69
2023/10/05 06:13:13;;;;;;;17.67;3.97;;;;;;;;;;4914027;29;20385;-68
2023/10/05 06:15:40;;;;;;;19.00;4.72;;;;;;;;;;4913844;29;20058;-69
2023/10/05 06:18:07;;;;;;;13.63;4.18;;;;;;;;;;4914038;29;20503;-71
2023/10/05 06:20:33;;;;;;;19.42;4.10;;;;;;;;;;4913154;29;20079;-68
2023/10/05 06:23:00;;;;;;;19.10;4.00;;;;;;;;;;4909301;28;20047;-69
2023/10/05 06:25:26;;;;;;;15.25;4.60;;;;;;;;;;4920475;29;20114;-69
2023/10/05 06:27:52;;;;;;;14.85;3.60;;;;;;;;;;4934373;28;20047;-69
2023/10/05 06:30:20;;;;;;;14.18;3.60;;;;;;;;;;4926530;29;20067;-70
2023/10/05 06:32:47;;;;;;;16.77;4.32;;;;;;;;;;4916111;28;20047;-70
2023/10/05 06:35:13;;;;;;;13.68;3.78;;;;;;;;;;4917831;29;20193;-71
2023/10/05 06:37:42;;;;;;;16.67;4.38;;;;;;;;;;4939391;28;20465;-71
2023/10/05 06:40:21;;;;;;;13.80;3.60;;;;;;;;;;4953600;28;20062;-71
2023/10/05 06:42:49;;;;;;;16.88;4.03;;;;;;;;;;4927294;29;20051;-70
2023/10/05 06:45:16;;;;;;;19.45;4.28;;;;;;;;;;4931831;29;20055;-71
2023/10/05 06:47:42;;;;;;;20.23;4.35;;;;;;;;;;4919281;29;20123;-71
2023/10/05 06:50:09;;;;;;;15.82;4.15;;;;;;;;;;4937083;29;20055;-71
2023/10/05 06:52:36;;;;;;;15.73;4.10;;;;;;;;;;4921762;28;20480;-71
2023/10/05 06:55:09;;;;;;;18.63;4.20;;;;;;;;;;4932138;29;20118;-70
2023/10/05 06:57:36;;;;;;;15.95;4.05;;;;;;;;;;4922718;29;20517;-70
2023/10/05 07:00:11;;;;;;;18.73;3.97;;;;;;;;;;4934927;28;20055;-71
2023/10/05 07:02:37;;;;;;;19.00;4.30;;;;;;;;;;4944500;29;20047;-71
2023/10/05 07:05:05;;;;;;;17.75;4.43;;;;;;;;;;4924010;29;20050;-70
2023/10/05 07:07:32;;;;;;;16.98;4.30;;;;;;;;;;4930955;28;20047;-71
2023/10/05 07:09:58;;;;;;;15.95;3.95;;;;;;;;;;4923204;29;20154;-70
2023/10/05 07:12:24;;;;;;;17.63;4.40;;;;;;;;;;4921987;29;20404;-74
2023/10/05 07:14:50;;;;;;;20.38;4.28;;;;;;;;;;4945356;28;20086;-74
2023/10/05 07:17:17;;;;;;;17.05;4.43;;;;;;;;;;5353278;23;20541;-72
2023/10/05 07:19:48;;;;;;;16.05;4.45;;;;;;;;;;4943957;28;20067;-77
2023/10/05 07:22:14;;;;;;;17.05;4.03;;;;;;;;;;4931256;29;20047;-74
2023/10/05 07:24:41;;;;;;;18.20;4.03;;;;;;;;;;4931700;29;20051;-77
2023/10/05 07:27:07;;;;;;;18.17;3.88;;;;;;;;;;4930158;29;20043;-75
2023/10/05 07:29:34;;;;;;;18.13;3.78;;;;;;;;;;4928204;28;20048;-75
2023/10/05 07:32:01;;;;;;;17.58;4.45;;;;;;;;;;4933527;29;20567;-75
2023/10/05 07:34:27;;;;;;;15.15;4.05;;;;;;;;;;4947228;28;20493;-75
2023/10/05 07:36:54;;;;;;;15.95;3.95;;;;;;;;;;4927524;29;20048;-75
2023/10/05 07:39:23;;;;;;;18.75;4.10;;;;;;;;;;4933273;28;20551;-75
2023/10/05 07:41:49;;;;;;;16.73;4.10;;;;;;;;;;4934852;29;20062;-75
2023/10/05 07:44:16;;;;;;;17.80;4.07;;;;;;;;;;4951582;28;20039;-76
2023/10/05 07:46:43;;;;;;;15.48;3.88;;;;;;;;;;4925155;29;20082;-74
2023/10/05 07:49:09;;;;;;;14.77;3.45;;;;;;;;;;4927896;29;20058;-75
2023/10/05 07:51:36;;;;;;;12.63;3.53;;;;;;;;;;4916630;28;20079;-75
2023/10/05 07:54:02;;;;;;;15.15;3.83;;;;;;;;;;4915999;29;20103;-75
2023/10/05 07:56:32;;;;;;;13.23;3.53;;;;;;;;;;4939424;28;20456;-75
2023/10/05 07:58:58;;;;;;;12.18;3.95;;;;;;;;;;5019669;23;20126;-75
2023/10/05 08:01:25;;;;;;;10.77;3.17;;;;;;;;;;4945998;28;20065;-75
2023/10/05 08:03:52;;;;;;;15.80;3.95;;;;;;;;;;4943543;28;20061;-75
2023/10/05 08:06:18;;;;;;;13.60;3.90;;;;;;;;;;4950647;28;20090;-75
2023/10/05 08:08:45;;;;;;;11.85;3.97;;;;;;;;;;4934905;28;20194;-76
2023/10/05 08:11:15;;;;;;;18.55;4.32;;;;;;;;;;4937540;28;21117;-75
2023/10/05 08:13:43;;;;;;;15.75;4.30;;;;;;;;;;4943754;28;20095;-75
2023/10/05 08:16:09;;;;;;;14.75;4.07;;;;;;;;;;4948206;28;20047;-76
2023/10/05 08:18:36;;;;;;;13.18;4.47;;;;;;;;;;4951230;28;20440;-73
2023/10/05 08:21:04;;;;;;;12.80;3.90;;;;;;;;;;4939859;28;20051;-77
2023/10/05 08:23:30;;;;;;;10.63;3.70;;;;;;;;;;4949562;28;20051;-86
2023/10/05 08:25:57;;;;;;;14.98;4.10;;;;;;;;;;4923941;28;20521;-66
2023/10/05 08:28:24;;;;;;;14.80;4.30;;;;;;;;;;5505076;23;20476;-73
2023/10/05 08:31:06;;;;;;;13.95;4.20;;;;;;;;;;5026917;23;20070;-72
2023/10/05 08:33:35;;;;;;;16.13;3.95;;;;;;;;;;4925890;29;20090;-70
2023/10/05 08:49:21;;;;;;;12.70;4.00;;;;;;;;;;4959836;28;20134;-92
2023/10/05 08:51:47;;;;;;;16.35;4.10;;;;;;;;;;4944378;28;20066;-93
2023/10/05 08:54:13;;;;;;;12.85;4.13;;;;;;;;;;4928938;29;20039;-86
2023/10/05 08:56:47;;;;;;;16.33;4.45;;;;;;;;;;4950754;28;20047;-86
2023/10/05 08:59:14;;;;;;;16.70;4.22;;;;;;;;;;4954256;28;20050;-86
2023/10/05 09:01:43;;;;;;;14.73;3.92;;;;;;;;;;4939936;28;20367;-89
2023/10/05 09:06:49;;;;;;;11.20;3.85;;;;;;;;;;4955912;28;20057;-88
2023/10/05 09:14:40;;;;;;;15.00;4.20;;;;;;;;;;5852173;23;20146;-75
2023/10/05 09:20:23;;;;;;;12.63;4.22;;;;;;;;;;4951057;23;20062;-70
2023/10/05 09:22:54;;;;;;;15.07;4.20;;;;;;;;;;5435283;23;20059;-69
2023/10/05 09:25:26;;;;;;;17.23;4.22;;;;;;;;;;4936063;29;20047;-79
2023/10/05 09:27:58;;;;;;;13.57;4.38;;;;;;;;;;4950888;28;20139;-79
2023/10/05 09:30:31;;;;;;;14.20;5.22;;;;;;;;;;4958146;28;20039;-79
2023/10/05 09:33:07;;;;;;;14.95;5.35;;;;;;;;;;4952695;28;20481;-78
2023/10/05 09:35:33;;;;;;;;;;;;;;;;;;4953668;28;20077;-80
2023/10/05 09:38:00;;;;;;;;;;;;;;;;;;4952296;28;20025;-79
2023/10/05 09:40:29;;;;;;;11.25;5.07;;;;;;;;;;4952667;28;19921;-79
2023/10/05 09:42:55;;;;;;;10.60;4.10;;;;;;;;;;4954301;28;20455;-78
2023/10/05 09:45:23;;;;;;;8.88;3.83;;;;;;;;;;4968679;28;20113;-80
2023/10/05 09:47:51;;;;;;;8.68;3.03;;;;;;;;;;4967183;28;20113;-82
2023/10/05 09:50:21;;;;;;;11.57;3.75;;;;;;;;;;4961297;28;20502;-79
2023/10/05 09:52:48;;;;;;;10.65;3.88;;;;;;;;;;4951232;28;20545;-80
2023/10/05 09:55:19;;;;;;;10.15;4.07;;;;;;;;;;4952499;28;20261;-79
2023/10/05 09:57:56;;;;;;;12.88;4.40;;;;;;;;;;4942165;28;20130;-82
2023/10/05 10:03:04;;;;;;;15.20;5.95;;;;;;;;;;4965300;28;20446;-79
2023/10/05 10:05:42;;;;;;;14.38;5.78;;;;;;;;;;4966464;28;20133;-79
2023/10/05 10:08:14;;;;;;;15.75;5.20;;;;;;;;;;4961237;28;20501;-80
2023/10/05 10:10:51;;;;;;;13.93;5.45;;;;;;;;;;4954141;28;20192;-80
2023/10/05 10:13:21;;;;;;;13.13;4.82;;;;;;;;;;4951687;28;20058;-80
2023/10/05 10:15:49;;;;;;;14.57;4.28;;;;;;;;;;4965048;28;20058;-81
2023/10/05 10:18:15;;;;;;;11.00;3.92;;;;;;;;;;4945726;28;20506;-82
2023/10/05 10:20:48;;;;;;;9.80;3.50;;;;;;;;;;4975697;28;20050;-80
2023/10/05 10:23:19;;;;;;;13.45;4.07;;;;;;;;;;4946948;28;20059;-82
2023/10/05 10:25:46;;;;;;;12.15;3.80;;;;;;;;;;4965386;28;20399;-81
2023/10/05 10:28:20;;;;;;;11.35;3.55;;;;;;;;;;4966947;28;20345;-80
2023/10/05 10:30:47;;;;;;;10.10;3.72;;;;;;;;;;4959558;28;20042;-80
2023/10/05 10:33:24;;;;;;;12.10;4.00;;;;;;;;;;4967460;28;20049;-81
2023/10/05 10:35:51;;;;;;;12.80;4.00;;;;;;;;;;4962459;28;20387;-80
2023/10/05 10:38:19;;;;;;;11.45;4.28;;;;;;;;;;4977025;28;20046;-81
2023/10/05 10:40:52;;;;;;;11.50;4.10;;;;;;;;;;4970313;28;20058;-80
2023/10/05 10:43:20;;;;;;;14.02;4.10;;;;;;;;;;4966401;28;20112;-80
2023/10/05 10:45:49;;;;;;;13.52;3.33;;;;;;;;;;4968191;28;20050;-81
2023/10/05 10:50:47;;;;;;;13.75;3.70;;;;;;;;;;4958490;28;20450;-81
2023/10/05 10:53:17;;;;;;;11.32;3.40;;;;;;;;;;4956067;28;20394;-80
2023/10/05 10:55:51;;;;;;;11.57;3.70;;;;;;;;;;4968646;28;20046;-81
2023/10/05 10:58:24;;;;;;;11.27;3.50;;;;;;;;;;4943925;28;20100;-80
2023/10/05 11:00:59;;;;;;;10.48;2.90;;;;;;;;;;4949436;28;20054;-80
2023/10/05 11:03:30;;;;;;;10.82;3.58;;;;;;;;;;4960523;28;20039;-79
2023/10/05 11:06:04;;;;;;;14.05;3.83;;;;;;;;;;4982897;28;20046;-78
2023/10/05 11:08:40;;;;;;;10.25;3.25;;;;;;;;;;4969968;28;20618;-74
2023/10/05 11:11:09;;;;;;;11.75;3.45;;;;;;;;;;4969218;28;20483;-81
2023/10/05 11:13:45;;;;;;;10.43;3.10;;;;;;;;;;4962271;28;20054;-83
2023/10/05 11:16:15;;;;;;;12.68;3.70;;;;;;;;;;4966260;28;20042;-80
2023/10/05 11:19:04;;;;;;;10.88;3.40;;;;;;;;;;4965599;28;20132;-80
2023/10/05 11:21:43;;;;;;;9.65;3.08;;;;;;;;;;4964857;28;20050;-81
2023/10/05 11:24:10;;;;;;;8.07;2.50;;;;;;;;;;4955905;28;20414;-80
2023/10/05 11:29:28;;;;;;;9.35;2.88;;;;;;;;;;4957749;28;20054;-79
2023/10/05 11:32:01;;;;;;;6.63;2.30;;;;;;;;;;4969415;28;20406;-80
2023/10/05 11:34:29;;;;;;;7.97;2.40;;;;;;;;;;4954083;28;20047;-79
2023/10/05 11:36:58;;;;;;;10.00;2.60;;;;;;;;;;4983561;28;20121;-79
2023/10/05 11:39:28;;;;;;;7.60;2.60;;;;;;;;;;4954498;28;20043;-81
2023/10/05 11:41:56;;;;;;;9.35;2.30;;;;;;;;;;4944588;28;20105;-81
2023/10/05 11:44:25;;;;;;;6.20;2.17;;;;;;;;;;4954852;28;20355;-81
2023/10/05 11:46:55;;;;;;;5.63;1.98;;;;;;;;;;4951917;28;20131;-81
2023/10/05 11:49:30;;;;;;;5.13;1.92;;;;;;;;;;4954029;28;20061;-81
2023/10/05 11:51:56;;;;;;;6.03;1.88;;;;;;;;;;4952485;28;20043;-82
2023/10/05 11:54:34;;;;;;;5.47;1.98;;;;;;;;;;4965008;28;20193;-82
2023/10/05 11:57:00;;;;;;;4.97;2.08;;;;;;;;;;4970875;28;20372;-81
2023/10/05 11:59:31;;;;;;;6.47;2.10;;;;;;;;;;4959060;28;20822;-79
2023/10/05 12:01:57;;;;;;;6.18;2.05;;;;;;;;;;4953918;28;20046;-79
2023/10/05 12:04:26;;;;;;;6.97;2.20;;;;;;;;;;4957382;28;20108;-82
2023/10/05 12:06:59;;;;;;;9.02;2.40;;;;;;;;;;4981533;28;20129;-81
2023/10/05 12:09:31;;;;;;;6.90;2.08;;;;;;;;;;4958170;28;20390;-80
2023/10/05 12:12:02;;;;;;;6.65;2.30;;;;;;;;;;4990833;28;20054;-82
2023/10/05 12:14:28;;;;;;;7.05;2.30;;;;;;;;;;4954290;28;20047;-81
2023/10/05 12:16:59;;;;;;;9.77;2.58;;;;;;;;;;4954098;28;20046;-81
2023/10/05 12:19:30;;;;;;;6.50;2.25;;;;;;;;;;4950608;28;20043;-81
2023/10/05 12:21:59;;;;;;;7.95;2.67;;;;;;;;;;4949087;28;20133;-81
2023/10/05 12:24:26;;;;;;;9.38;3.00;;;;;;;;;;4948623;28;20051;-81
2023/10/05 12:26:53;;;;;;;7.45;2.40;;;;;;;;;;4953403;28;20405;-81
2023/10/05 12:29:19;;;;;;;9.05;2.30;;;;;;;;;;4968319;28;20108;-81
2023/10/05 12:31:47;;;;;;;8.50;2.70;;;;;;;;;;4957415;28;20491;-81
2023/10/05 12:34:17;;;;;;;12.15;2.78;;;;;;;;;;4971143;28;20150;-81
2023/10/05 12:36:50;;;;;;;10.10;2.95;;;;;;;;;;4965741;28;20133;-81
2023/10/05 12:39:20;;;;;;;11.82;3.00;;;;;;;;;;4978245;28;20043;-81
2023/10/05 12:41:46;;;;;;;9.45;2.90;;;;;;;;;;4969903;28;20051;-81
2023/10/05 12:44:13;;;;;;;11.57;2.88;;;;;;;;;;4961650;28;20124;-81
2023/10/05 12:46:43;;;;;;;13.55;3.13;;;;;;;;;;4956316;28;20061;-81
2023/10/05 12:49:10;;;;;;;11.55;3.20;;;;;;;;;;4952992;28;20047;-80
2023/10/05 12:51:36;;;;;;;15.40;2.97;;;;;;;;;;4954697;28;20372;-80
2023/10/05 12:54:09;;;;;;;10.95;3.17;;;;;;;;;;4978232;28;20054;-80
2023/10/05 12:56:38;;;;;;;8.82;2.60;;;;;;;;;;4966069;28;20047;-81
2023/10/05 12:59:08;;;;;;;12.40;3.30;;;;;;;;;;4964491;28;20109;-80
2023/10/05 13:01:35;;;;;;;8.80;2.90;;;;;;;;;;4965735;28;20047;-81
2023/10/05 13:04:05;;;;;;;9.32;2.90;;;;;;;;;;4965035;28;20451;-80
2023/10/05 13:06:32;;;;;;;10.90;3.33;;;;;;;;;;4971458;28;20042;-81
2023/10/05 13:09:03;;;;;;;8.90;2.85;;;;;;;;;;4954999;28;20081;-82
2023/10/05 13:11:30;;;;;;;8.35;3.30;;;;;;;;;;4980774;28;20130;-82
2023/10/05 13:13:56;;;;;;;8.65;3.17;;;;;;;;;;4953324;28;20135;-82
2023/10/05 13:16:22;;;;;;;8.27;3.03;;;;;;;;;;4973019;28;20043;-82
2023/10/05 13:18:49;;;;;;;9.73;3.20;;;;;;;;;;4968535;28;20058;-82
2023/10/05 13:21:16;;;;;;;9.38;3.45;;;;;;;;;;4963434;28;20109;-81
2023/10/05 13:23:42;;;;;;;8.35;3.05;;;;;;;;;;4959640;28;20086;-81
2023/10/05 13:26:08;;;;;;;8.13;3.33;;;;;;;;;;4957867;28;20121;-82
2023/10/05 13:28:34;;;;;;;10.05;3.08;;;;;;;;;;4948190;28;20043;-81
2023/10/05 13:31:06;;;;;;;11.88;3.00;;;;;;;;;;4954152;28;20337;-82
2023/10/05 13:33:35;;;;;;;9.73;2.90;;;;;;;;;;4950367;28;20122;-82
2023/10/05 13:36:12;;;;;;;9.00;2.88;;;;;;;;;;4952341;28;20054;-82
2023/10/05 13:38:43;;;;;;;9.52;2.88;;;;;;;;;;4953982;28;20082;-81
2023/10/05 13:41:18;;;;;;;10.68;3.17;;;;;;;;;;4967782;28;20053;-81
2023/10/05 13:43:45;;;;;;;12.50;2.90;;;;;;;;;;4957638;28;20055;-79
2023/10/05 13:46:21;;;;;;;9.25;3.05;;;;;;;;;;4954907;28;20130;-80
2023/10/05 13:48:48;;;;;;;13.98;3.30;;;;;;;;;;4950658;28;20510;-75
2023/10/05 13:51:19;;;;;;;14.27;3.25;;;;;;;;;;4961574;28;20094;-76
2023/10/05 13:53:54;;;;;;;7.55;2.78;;;;;;;;;;4956317;28;20051;-77
2023/10/05 13:56:27;;;;;;;14.45;3.05;;;;;;;;;;4962072;28;20153;-77
2023/10/05 13:58:58;;;;;;;11.55;2.88;;;;;;;;;;4949066;28;20058;-78
2023/10/05 14:01:24;;;;;;;12.57;3.22;;;;;;;;;;4953412;28;20406;-77
2023/10/05 14:03:51;;;;;;;11.80;3.13;;;;;;;;;;4967736;28;20046;-77
2023/10/05 14:06:17;;;;;;;10.75;3.10;;;;;;;;;;4959605;28;20055;-78
2023/10/05 14:08:46;;;;;;;13.55;3.38;;;;;;;;;;4948178;28;20062;-77
2023/10/05 14:11:13;;;;;;;11.18;3.28;;;;;;;;;;4950276;28;20103;-78
2023/10/05 14:13:40;;;;;;;11.70;3.42;;;;;;;;;;4961043;28;20340;-77
2023/10/05 14:16:06;;;;;;;13.98;3.67;;;;;;;;;;4962713;28;20043;-77
2023/10/05 14:18:36;;;;;;;13.88;3.67;;;;;;;;;;4961451;28;20134;-78
2023/10/05 14:21:03;;;;;;;11.25;3.63;;;;;;;;;;4956477;28;20042;-77
2023/10/05 14:23:35;;;;;;;11.88;3.40;;;;;;;;;;4977966;28;20120;-77
2023/10/05 14:26:03;;;;;;;12.02;3.20;;;;;;;;;;4962386;28;20046;-76
2023/10/05 14:28:29;;;;;;;10.95;2.70;;;;;;;;;;4946187;28;20082;-77
2023/10/05 14:30:57;;;;;;;11.05;3.05;;;;;;;;;;4957660;28;20089;-76
2023/10/05 14:33:23;;;;;;;10.20;2.90;;;;;;;;;;4952223;28;20054;-76
2023/10/05 14:35:56;;;;;;;10.13;2.95;;;;;;;;;;4966130;28;20046;-76
2023/10/05 14:38:22;;;;;;;10.15;2.80;;;;;;;;;;4968410;28;20046;-77
2023/10/05 14:40:53;;;;;;;8.07;2.85;;;;;;;;;;4953624;28;20383;-76
2023/10/05 14:43:32;;;;;;;11.23;3.28;;;;;;;;;;4950695;28;20074;-76
2023/10/05 14:46:00;;;;;;;11.55;3.00;;;;;;;;;;4961256;28;20048;-76
2023/10/05 14:48:32;;;;;;;12.35;2.60;;;;;;;;;;4984519;28;20051;-77
2023/10/05 14:50:59;;;;;;;10.77;2.90;;;;;;;;;;4954908;28;20047;-77
2023/10/05 14:53:26;;;;;;;9.02;2.78;;;;;;;;;;4988661;28;20077;-79
2023/10/05 14:55:52;;;;;;;11.80;3.08;;;;;;;;;;4961946;28;20412;-77
2023/10/05 14:58:18;;;;;;;8.98;2.88;;;;;;;;;;4956087;28;20481;-77
2023/10/05 15:00:48;;;;;;;7.03;2.60;;;;;;;;;;4962602;28;20081;-76
2023/10/05 15:03:17;;;;;;;12.48;2.85;;;;;;;;;;4983519;28;20154;-80
2023/10/05 15:05:43;;;;;;;12.35;3.13;;;;;;;;;;4954893;28;20399;-82
2023/10/05 15:08:11;;;;;;;7.35;2.47;;;;;;;;;;4954684;28;20047;-79
2023/10/05 15:10:40;;;;;;;12.60;3.03;;;;;;;;;;4979425;28;20121;-80
2023/10/05 15:13:06;;;;;;;10.60;3.17;;;;;;;;;;4969579;28;20077;-81
2023/10/05 15:15:33;;;;;;;11.70;3.50;;;;;;;;;;4969973;28;20520;-79
2023/10/05 15:17:59;;;;;;;9.02;2.85;;;;;;;;;;4991621;28;20124;-80
2023/10/05 15:20:27;;;;;;;11.82;3.30;;;;;;;;;;4991709;28;20055;-80
2023/10/05 15:22:53;;;;;;;11.30;3.20;;;;;;;;;;4963406;28;20067;-80
2023/10/05 15:25:20;;;;;;;11.45;3.13;;;;;;;;;;4966759;28;20389;-79
2023/10/05 15:27:46;;;;;;;9.38;3.00;;;;;;;;;;4954479;28;20047;-77
2023/10/05 15:30:13;;;;;;;12.35;2.78;;;;;;;;;;4954934;28;20049;-78
2023/10/05 15:32:42;;;;;;;6.80;2.60;;;;;;;;;;4977712;28;20050;-79
2023/10/05 15:35:12;;;;;;;11.20;2.88;;;;;;;;;;4972684;28;20034;-80
2023/10/05 15:37:40;;;;;;;10.52;2.75;;;;;;;;;;4991952;28;20405;-80
2023/10/05 15:40:12;;;;;;;14.60;2.88;;;;;;;;;;4970990;28;20370;-80
2023/10/05 15:43:04;;;;;;;10.52;3.28;;;;;;;;;;4971588;28;20054;-79